Time;durP1;ratioP1;P1;durP2;ratioP2;P2;SDS_P1;SDS_P2;PMS_P1;PMS_P2;Temp;Humidity;BMP_temperature;BMP_pressure;BME280_temperature;BME280_humidity;BME280_pressure;Samples;Min_cycle;Max_cycle;Signal;HPM_P1;HPM_P2
2023/01/03 00:01:27;;;;;;;63.55;21.90;;;;;;;1.41;100.00;101658.53;4896012;29;20017;-75
2023/01/03 00:03:55;;;;;;;57.00;22.73;;;;;;;1.15;100.00;101614.50;4893892;29;20025;-76
2023/01/03 00:06:22;;;;;;;78.85;23.67;;;;;;;1.37;100.00;101638.66;4895680;29;20031;-76
2023/01/03 00:08:49;;;;;;;70.60;25.05;;;;;;;1.64;100.00;101677.59;4878289;29;20088;-76
2023/01/03 00:11:18;;;;;;;98.30;25.65;;;;;;;1.51;100.00;101642.47;4896564;29;20033;-76
2023/01/03 00:13:44;;;;;;;59.53;23.92;;;;;;;1.55;100.00;101659.81;4894653;29;20428;-75
2023/01/03 00:16:17;;;;;;;64.38;21.55;;;;;;;1.38;100.00;101629.38;4896357;29;20440;-74
2023/01/03 00:18:43;;;;;;;56.50;20.20;;;;;;;1.56;100.00;101666.69;4894708;29;20116;-77
2023/01/03 00:21:09;;;;;;;55.10;19.30;;;;;;;1.54;100.00;101665.66;4879394;29;20040;-77
2023/01/03 00:23:34;;;;;;;55.20;20.67;;;;;;;1.44;100.00;101668.09;4889638;29;20032;-78
2023/01/03 00:26:11;;;;;;;43.70;20.35;;;;;;;1.43;100.00;101682.50;4884903;29;20127;-74
2023/01/03 00:28:36;;;;;;;44.90;17.67;;;;;;;1.17;100.00;101641.88;4876664;29;20033;-76
2023/01/03 00:31:09;;;;;;;38.90;17.93;;;;;;;1.06;100.00;101671.41;4876693;29;20028;-76
2023/01/03 00:33:37;;;;;;;57.08;20.50;;;;;;;1.04;100.00;101660.19;4876511;29;20084;-75
2023/01/03 00:36:04;;;;;;;95.93;19.87;;;;;;;1.06;100.00;101658.69;4876456;29;20080;-76
2023/01/03 00:38:29;;;;;;;52.90;20.60;;;;;;;1.13;100.00;101653.44;4874458;29;20029;-76
2023/01/03 00:41:06;;;;;;;55.43;21.07;;;;;;;1.22;100.00;101670.28;4875977;29;20378;-77
2023/01/03 00:43:32;;;;;;;34.37;17.57;;;;;;;1.21;100.00;101658.31;4875420;29;20036;-77
2023/01/03 00:45:57;;;;;;;52.83;19.37;;;;;;;1.20;100.00;101664.19;4894158;29;20037;-76
2023/01/03 00:48:23;;;;;;;40.03;19.17;;;;;;;1.12;100.00;101644.00;4894712;29;20140;-75
2023/01/03 00:50:48;;;;;;;46.00;17.87;;;;;;;1.08;100.00;101643.56;4894927;29;20499;-76
2023/01/03 00:53:14;;;;;;;72.37;19.60;;;;;;;0.99;100.00;101641.06;4894777;29;20503;-76
2023/01/03 00:55:39;;;;;;;53.03;20.27;;;;;;;1.06;100.00;101642.50;4878078;29;20495;-77
2023/01/03 00:58:05;;;;;;;76.77;19.17;;;;;;;1.09;100.00;101645.38;4887132;29;20480;-75
2023/01/03 01:00:30;;;;;;;78.07;19.47;;;;;;;1.06;100.00;101648.53;4870854;29;20060;-76
2023/01/03 01:02:56;;;;;;;68.27;18.63;;;;;;;0.90;100.00;101635.13;4890055;29;20039;-74
2023/01/03 01:05:21;;;;;;;51.63;18.43;;;;;;;0.75;100.00;101612.56;4894596;29;20032;-75
2023/01/03 01:07:47;;;;;;;78.77;19.07;;;;;;;1.03;100.00;101649.88;4894450;29;20033;-76
2023/01/03 01:10:12;;;;;;;45.43;17.90;;;;;;;0.96;100.00;101640.78;4878071;29;20095;-75
2023/01/03 01:12:38;;;;;;;67.33;17.77;;;;;;;0.92;100.00;101624.34;4894842;29;20056;-76
2023/01/03 01:15:04;;;;;;;43.07;18.50;;;;;;;1.01;100.00;101639.56;4894451;29;20037;-75
2023/01/03 01:17:30;;;;;;;44.50;17.53;;;;;;;0.91;100.00;101634.34;4894774;29;20448;-76
2023/01/03 01:19:55;;;;;;;78.35;19.30;;;;;;;1.01;100.00;101631.03;4894764;29;20096;-76
2023/01/03 01:22:21;;;;;;;41.83;15.88;;;;;;;0.86;100.00;101626.31;4893308;29;20056;-76
2023/01/03 01:24:46;;;;;;;29.40;15.03;;;;;;;0.80;100.00;101635.88;4894558;29;20495;-75
2023/01/03 01:27:12;;;;;;;37.77;17.20;;;;;;;0.41;100.00;101578.88;4894431;29;20084;-75
2023/01/03 01:29:37;;;;;;;39.23;16.93;;;;;;;0.68;100.00;101627.97;4877792;29;20464;-76
2023/01/03 01:32:04;;;;;;;30.23;16.60;;;;;;;0.67;100.00;101616.00;4894709;29;20108;-76
2023/01/03 01:34:30;;;;;;;27.00;16.93;;;;;;;0.68;100.00;101610.19;4877561;29;20029;-77
2023/01/03 01:36:56;;;;;;;41.23;17.30;;;;;;;0.72;100.00;101614.81;4893064;29;20032;-76
2023/01/03 01:39:24;;;;;;;40.47;18.50;;;;;;;0.63;100.00;101626.66;4894171;29;20025;-77
2023/01/03 01:44:43;;;;;;;46.87;16.80;;;;;;;0.50;100.00;101619.50;4885661;29;20057;-78
2023/01/03 01:47:27;;;;;;;36.90;17.63;;;;;;;0.55;100.00;101622.47;4893831;29;20036;-77
2023/01/03 01:50:11;;;;;;;35.97;16.63;;;;;;;0.53;100.00;101611.28;4893554;29;20058;-76
2023/01/03 01:52:39;;;;;;;38.77;19.47;;;;;;;0.51;100.00;101622.94;4891888;29;20610;-78
2023/01/03 01:55:09;;;;;;;51.03;17.70;;;;;;;0.25;100.00;101601.00;4883306;29;20435;-77
2023/01/03 01:57:37;;;;;;;35.20;16.67;;;;;;;0.32;100.00;101616.09;4882451;29;20029;-77
2023/01/03 02:00:04;;;;;;;32.53;16.13;;;;;;;0.41;100.00;101606.81;4874213;29;20093;-78
2023/01/03 02:02:30;;;;;;;32.17;18.23;;;;;;;0.43;100.00;101612.03;4858881;29;20112;-77
2023/01/03 02:04:56;;;;;;;30.10;15.13;;;;;;;0.30;100.00;101621.03;4875819;29;20100;-78
2023/01/03 02:07:22;;;;;;;38.13;18.47;;;;;;;0.31;100.00;101614.28;4874770;29;20033;-77
2023/01/03 02:09:54;;;;;;;38.80;19.27;;;;;;;0.34;100.00;101606.97;4858914;29;20025;-78
2023/01/03 02:15:36;;;;;;;43.20;17.93;;;;;;;0.41;100.00;101611.00;4875401;29;20174;-77
2023/01/03 02:18:24;;;;;;;56.93;20.13;;;;;;;0.30;100.00;101603.25;4874132;29;20397;-77
2023/01/03 02:21:08;;;;;;;44.67;18.97;;;;;;;0.25;100.00;101604.44;4877030;29;20127;-79
2023/01/03 02:24:04;;;;;;;49.17;17.73;;;;;;;0.22;100.00;101595.63;4892851;29;20028;-77
2023/01/03 02:26:43;;;;;;;57.20;20.83;;;;;;;0.23;100.00;101594.88;4886542;29;20456;-76
2023/01/03 02:30:03;;;;;;;54.77;21.83;;;;;;;0.02;100.00;101574.28;4862104;29;20480;-77
2023/01/03 02:33:15;;;;;;;55.10;20.63;;;;;;;0.22;100.00;101600.72;4786529;29;20043;-77
2023/01/03 02:35:51;;;;;;;58.63;20.53;;;;;;;0.11;100.00;101605.66;4731805;30;20135;-77
2023/01/03 02:38:16;;;;;;;42.57;21.17;;;;;;;-0.15;100.00;101572.63;4732068;30;20028;-77
2023/01/03 02:40:48;;;;;;;51.13;22.73;;;;;;;0.03;100.00;101611.63;4731735;30;20045;-77
2023/01/03 02:43:41;;;;;;;41.60;21.00;;;;;;;-0.02;100.00;101598.47;4731792;30;20076;-76
2023/01/03 02:46:23;;;;;;;45.73;20.47;;;;;;;0.09;100.00;101606.25;4731721;30;20037;-76
2023/01/03 02:49:09;;;;;;;35.50;19.90;;;;;;;0.06;100.00;101604.28;4716952;30;20540;-76
2023/01/03 02:51:40;;;;;;;52.67;22.90;;;;;;;-0.26;100.00;101563.06;4713711;30;20480;-76
2023/01/03 02:54:10;;;;;;;46.27;21.50;;;;;;;-0.03;100.00;101595.78;4699104;30;20128;-76
2023/01/03 02:57:02;;;;;;;48.40;21.73;;;;;;;0.05;100.00;101610.13;4713879;30;20061;-77
2023/01/03 02:59:50;;;;;;;37.23;21.73;;;;;;;0.09;100.00;101608.78;4678822;30;20096;-77
2023/01/03 03:02:20;;;;;;;36.40;22.23;;;;;;;0.13;100.00;101610.88;4681718;30;20073;-78
2023/01/03 03:04:50;;;;;;;36.45;21.20;;;;;;;0.18;100.00;101608.78;4678826;30;20485;-77
2023/01/03 03:07:36;;;;;;;35.03;19.93;;;;;;;0.15;100.00;101601.78;4701613;29;20484;-79
2023/01/03 03:15:43;;;;;;;34.33;18.20;;;;;;;-0.02;100.00;101592.50;4784742;29;20046;-76
2023/01/03 03:18:15;;;;;;;49.07;21.00;;;;;;;-0.01;100.00;101604.47;4784578;29;20054;-76
2023/01/03 03:26:19;;;;;;;36.97;21.13;;;;;;;0.04;100.00;101602.34;4784784;29;20062;-76
2023/01/03 03:28:49;;;;;;;50.57;21.43;;;;;;;0.17;100.00;101612.06;4784185;29;20092;-75
2023/01/03 03:31:39;;;;;;;44.03;21.30;;;;;;;0.26;100.00;101602.78;4802038;29;20125;-77
2023/01/03 03:34:20;;;;;;;33.63;18.40;;;;;;;0.23;100.00;101608.47;4820855;29;20102;-78
2023/01/03 03:37:09;;;;;;;42.27;19.77;;;;;;;0.20;100.00;101604.72;4851525;29;20048;-77
2023/01/03 03:45:50;;;;;;;50.23;22.10;;;;;;;0.08;100.00;101604.47;5016881;23;20074;-78
2023/01/03 03:48:24;;;;;;;43.90;20.97;;;;;;;-0.10;100.00;101563.84;4916292;29;20033;-78
2023/01/03 03:51:00;;;;;;;47.30;20.63;;;;;;;0.06;100.00;101593.25;4916471;29;20521;-78
2023/01/03 03:53:31;;;;;;;48.87;21.17;;;;;;;-0.08;100.00;101586.84;4916453;29;20407;-78
2023/01/03 03:56:09;;;;;;;62.17;22.30;;;;;;;-0.19;100.00;101594.31;4916151;29;20043;-78
2023/01/03 03:58:43;;;;;;;53.10;23.40;;;;;;;-0.23;100.00;101596.38;4915999;29;20459;-77
2023/01/03 04:01:13;;;;;;;72.50;25.33;;;;;;;-0.26;100.00;101591.91;4916226;29;20083;-78
2023/01/03 04:03:41;;;;;;;54.13;24.50;;;;;;;-0.21;100.00;101590.72;4899364;29;20466;-78
2023/01/03 04:06:21;;;;;;;54.63;25.47;;;;;;;-0.17;100.00;101587.72;4915995;29;20036;-76
2023/01/03 04:08:46;;;;;;;36.07;20.87;;;;;;;-0.13;100.00;101593.09;4915968;29;20447;-77
2023/01/03 04:11:12;;;;;;;37.27;21.73;;;;;;;-0.26;100.00;101584.28;4898893;29;20036;-79
2023/01/03 04:13:38;;;;;;;48.50;22.63;;;;;;;-0.31;100.00;101593.09;4899015;29;20028;-76
2023/01/03 04:16:05;;;;;;;38.57;20.50;;;;;;;-0.46;100.00;101568.72;4915716;29;20458;-77
2023/01/03 04:18:31;;;;;;;40.13;21.40;;;;;;;-0.29;100.00;101586.50;4898984;29;20035;-77
2023/01/03 04:20:56;;;;;;;37.07;20.07;;;;;;;-0.36;100.00;101587.56;4898249;29;20418;-77
2023/01/03 04:23:22;;;;;;;67.23;21.47;;;;;;;-0.59;100.00;101559.03;4898026;29;20032;-76
2023/01/03 04:25:48;;;;;;;46.67;23.67;;;;;;;-0.48;100.00;101568.59;4898060;29;20115;-76
2023/01/03 04:28:14;;;;;;;46.53;23.03;;;;;;;-0.17;100.00;101600.41;4915564;29;20099;-76
2023/01/03 04:30:40;;;;;;;44.83;21.47;;;;;;;-0.04;100.00;101601.59;4898520;29;20028;-75
2023/01/03 04:33:05;;;;;;;44.97;20.83;;;;;;;-0.08;100.00;101607.13;4915445;29;20091;-76
2023/01/03 04:35:31;;;;;;;59.57;19.33;;;;;;;-0.26;100.00;101596.97;4915072;29;20488;-76
2023/01/03 04:37:57;;;;;;;44.57;19.53;;;;;;;-0.34;100.00;101593.69;4915496;29;20036;-72
2023/01/03 04:40:23;;;;;;;56.60;21.30;;;;;;;-0.38;100.00;101599.19;4914819;29;20040;-75
2023/01/03 04:45:32;;;;;;;41.93;17.27;;;;;;;-0.36;100.00;101612.94;4913859;29;20070;-77
2023/01/03 04:47:58;;;;;;;52.47;17.27;;;;;;;-0.44;100.00;101596.03;4897320;29;20040;-77
2023/01/03 04:50:23;;;;;;;47.80;18.53;;;;;;;-0.51;100.00;101608.88;4915060;29;20507;-74
2023/01/03 04:52:48;;;;;;;53.87;18.17;;;;;;;-0.71;100.00;101599.25;4906866;29;20039;-76
2023/01/03 04:55:14;;;;;;;55.77;20.33;;;;;;;-0.64;100.00;101609.28;4907413;29;20031;-76
2023/01/03 04:57:39;;;;;;;59.37;18.33;;;;;;;-0.69;100.00;101602.84;4913050;29;20028;-75
2023/01/03 05:00:05;;;;;;;52.10;18.23;;;;;;;-0.69;100.00;101603.72;4897476;29;20517;-77
2023/01/03 05:02:31;;;;;;;37.70;18.43;;;;;;;-0.57;100.00;101603.19;4894521;29;20028;-73
2023/01/03 05:04:56;;;;;;;47.03;20.03;;;;;;;-0.50;100.00;101609.03;4878940;29;20028;-76
2023/01/03 05:07:22;;;;;;;46.63;20.40;;;;;;;-0.42;100.00;101614.84;4895609;29;20032;-74
2023/01/03 05:09:47;;;;;;;44.50;20.17;;;;;;;-0.28;100.00;101616.22;4895605;29;20476;-74
2023/01/03 05:12:13;;;;;;;56.77;21.30;;;;;;;-0.18;100.00;101615.50;4910385;29;20562;-78
2023/01/03 05:14:41;;;;;;;55.07;21.43;;;;;;;-0.02;100.00;101620.44;4897495;29;20036;-75
2023/01/03 05:17:08;;;;;;;40.87;18.33;;;;;;;0.04;100.00;101632.81;4897494;29;20039;-75
2023/01/03 05:19:34;;;;;;;59.47;17.07;;;;;;;-0.15;100.00;101619.97;4914621;29;20059;-78
2023/01/03 05:27:27;;;;;;;34.23;16.80;;;;;;;-0.25;100.00;101616.53;4914392;29;20427;-79
2023/01/03 05:29:54;;;;;;;49.27;15.60;;;;;;;-0.20;100.00;101620.41;4914715;29;20036;-81
2023/01/03 05:32:19;;;;;;;39.30;17.90;;;;;;;-0.25;100.00;101621.63;4897083;29;20036;-80
2023/01/03 05:34:45;;;;;;;40.37;16.97;;;;;;;-0.35;100.00;101611.28;4897081;29;20036;-77
2023/01/03 05:37:11;;;;;;;31.77;17.37;;;;;;;-0.39;100.00;101620.22;4914750;29;20715;-81
2023/01/03 05:39:36;;;;;;;36.87;17.57;;;;;;;-0.31;100.00;101630.25;4897849;29;20098;-79
2023/01/03 05:42:03;;;;;;;40.50;18.17;;;;;;;-0.30;100.00;101620.22;4914362;29;20043;-78
2023/01/03 05:44:31;;;;;;;33.03;17.53;;;;;;;-0.33;100.00;101628.44;4897595;29;20135;-76
2023/01/03 05:46:57;;;;;;;31.03;16.23;;;;;;;-0.25;100.00;101631.75;4914718;29;20070;-76
2023/01/03 05:49:23;;;;;;;40.87;17.13;;;;;;;-0.32;100.00;101631.91;4897597;29;20043;-78
2023/01/03 05:51:48;;;;;;;59.40;17.97;;;;;;;-0.39;100.00;101632.91;4901389;29;20036;-78
2023/01/03 05:54:16;;;;;;;55.13;18.40;;;;;;;-0.49;100.00;101617.53;4893892;29;20055;-76
2023/01/03 05:56:41;;;;;;;54.73;17.73;;;;;;;-0.31;100.00;101641.31;4895546;29;20063;-82
2023/01/03 05:59:07;;;;;;;43.63;17.03;;;;;;;-0.30;100.00;101635.47;4895946;29;20487;-78
2023/01/03 06:01:33;;;;;;;42.87;16.77;;;;;;;-0.41;100.00;101616.66;4878560;29;20040;-79
2023/01/03 06:03:59;;;;;;;40.23;15.00;;;;;;;-0.33;100.00;101630.97;4896593;29;20029;-80
2023/01/03 06:06:25;;;;;;;53.77;16.00;;;;;;;-0.39;100.00;101634.56;4896343;29;20037;-79
2023/01/03 06:08:52;;;;;;;34.33;15.00;;;;;;;-0.48;100.00;101639.63;4899050;29;20039;-74
2023/01/03 06:11:18;;;;;;;40.97;16.57;;;;;;;-0.75;100.00;101599.69;4904990;29;20032;-75
2023/01/03 06:13:44;;;;;;;35.73;16.37;;;;;;;-0.62;100.00;101638.25;4901777;29;20040;-76
2023/01/03 06:19:04;;;;;;;64.07;17.47;;;;;;;-0.65;100.00;101655.66;4899581;29;20121;-77
2023/01/03 06:21:30;;;;;;;34.90;16.83;;;;;;;-0.59;100.00;101655.41;4897870;29;20029;-76
2023/01/03 06:23:55;;;;;;;43.37;17.23;;;;;;;-0.83;100.00;101609.97;4897934;29;20535;-75
2023/01/03 06:26:22;;;;;;;46.77;19.60;;;;;;;-0.44;100.00;101651.84;4899130;29;20032;-76
2023/01/03 06:28:49;;;;;;;42.33;18.77;;;;;;;-0.29;100.00;101660.09;4880782;29;20028;-76
2023/01/03 06:31:15;;;;;;;41.90;19.63;;;;;;;-0.15;100.00;101650.44;4897509;29;20040;-74
2023/01/03 06:33:40;;;;;;;48.73;18.43;;;;;;;-0.04;100.00;101658.38;4897840;29;20460;-76
2023/01/03 06:36:09;;;;;;;43.23;18.23;;;;;;;0.07;100.00;101664.47;4897570;29;20476;-76
2023/01/03 06:38:35;;;;;;;52.17;18.90;;;;;;;0.06;100.00;101642.38;4898011;29;20033;-76
2023/01/03 06:41:01;;;;;;;44.10;16.33;;;;;;;-0.06;100.00;101619.22;4896455;29;20048;-76
2023/01/03 06:43:27;;;;;;;41.40;18.33;;;;;;;0.12;100.00;101644.63;4880123;29;20076;-76
2023/01/03 06:54:08;;;;;;;33.47;15.97;;;;;;;0.18;100.00;101674.81;4897317;29;20080;-75
2023/01/03 06:56:33;;;;;;;27.47;14.27;;;;;;;0.08;100.00;101662.84;4897685;29;20475;-76
2023/01/03 06:58:59;;;;;;;25.20;13.43;;;;;;;-0.02;100.00;101671.22;4896944;29;20065;-75
2023/01/03 07:01:25;;;;;;;32.63;15.57;;;;;;;-0.29;100.00;101656.69;4896965;29;20108;-74
2023/01/03 07:03:51;;;;;;;27.80;13.60;;;;;;;-0.30;100.00;101670.09;4897294;29;20112;-78
2023/01/03 07:06:16;;;;;;;35.83;15.93;;;;;;;-0.37;100.00;101664.41;4909127;29;20044;-78
2023/01/03 07:08:41;;;;;;;37.80;15.57;;;;;;;-0.43;100.00;101660.38;4914944;29;20039;-78
2023/01/03 07:11:07;;;;;;;34.53;16.23;;;;;;;-0.74;100.00;101615.06;4904693;29;20044;-77
2023/01/03 07:16:18;;;;;;;33.73;15.13;;;;;;;-0.45;100.00;101674.53;4912895;29;20514;-77
2023/01/03 07:18:45;;;;;;;30.57;17.83;;;;;;;-0.54;100.00;101666.91;4904870;29;20032;-77
2023/01/03 07:21:10;;;;;;;28.40;14.97;;;;;;;-0.48;100.00;101675.13;4902034;29;20036;-78
2023/01/03 07:23:37;;;;;;;40.27;17.97;;;;;;;-0.46;100.00;101663.50;4897015;29;20408;-78
2023/01/03 07:26:02;;;;;;;47.83;18.50;;;;;;;-0.48;100.00;101661.56;4895732;29;20042;-78
2023/01/03 07:28:28;;;;;;;42.13;17.17;;;;;;;-0.37;100.00;101679.63;4896270;29;20116;-79
2023/01/03 07:31:03;;;;;;;37.53;17.93;;;;;;;-0.50;100.00;101651.22;4912785;29;20052;-81
2023/01/03 07:33:28;;;;;;;41.83;16.87;;;;;;;-0.21;100.00;101683.72;4896672;29;20065;-84
2023/01/03 07:36:01;;;;;;;35.00;15.63;;;;;;;-0.23;100.00;101672.50;4897002;29;20092;-78
2023/01/03 07:38:27;;;;;;;43.03;17.07;;;;;;;-0.37;100.00;101650.84;4897223;29;20565;-79
2023/01/03 07:40:59;;;;;;;42.20;16.80;;;;;;;-0.17;100.00;101679.09;4897063;29;20060;-78
2023/01/03 07:43:37;;;;;;;40.33;18.70;;;;;;;-0.02;100.00;101681.38;4897070;29;20152;-77
2023/01/03 07:46:20;;;;;;;37.93;18.67;;;;;;;0.09;100.00;101670.63;4912523;29;20064;-77
2023/01/03 07:48:47;;;;;;;34.03;17.23;;;;;;;0.12;100.00;101667.47;4915258;29;20036;-79
2023/01/03 07:51:15;;;;;;;27.90;16.60;;;;;;;-0.06;100.00;101628.50;4896752;29;20044;-78
2023/01/03 07:53:40;;;;;;;29.53;16.57;;;;;;;0.17;100.00;101670.47;4896774;29;20032;-78
2023/01/03 07:56:09;;;;;;;29.97;17.00;;;;;;;0.17;100.00;101673.03;4912232;29;20040;-79
2023/01/03 07:58:35;;;;;;;27.88;14.48;;;;;;;0.12;100.00;101673.44;4896528;29;20028;-78
2023/01/03 08:01:28;;;;;;;27.83;17.20;;;;;;;0.17;100.00;101671.38;4910087;29;20039;-78
2023/01/03 08:03:54;;;;;;;28.73;16.07;;;;;;;0.08;100.00;101660.31;4874932;29;20457;-80
2023/01/03 08:06:22;;;;;;;29.90;17.30;;;;;;;0.03;100.00;101646.28;4859333;29;20055;-80
2023/01/03 08:14:16;;;;;;;30.23;16.60;;;;;;;0.06;100.00;101662.69;4874774;29;20126;-76
2023/01/03 08:16:43;;;;;;;27.57;16.37;;;;;;;0.17;100.00;101661.19;4881837;29;20085;-79
2023/01/03 08:19:08;;;;;;;27.50;16.23;;;;;;;0.25;100.00;101677.19;4875987;29;20413;-79
2023/01/03 08:21:34;;;;;;;26.27;16.33;;;;;;;0.05;100.00;101637.16;4893613;29;20071;-79
2023/01/03 08:24:00;;;;;;;29.00;16.07;;;;;;;0.26;100.00;101657.03;4894135;29;20146;-79
2023/01/03 08:26:25;;;;;;;29.17;17.17;;;;;;;0.27;100.00;101642.69;4878367;29;20032;-79
2023/01/03 08:28:51;;;;;;;26.37;15.77;;;;;;;0.22;100.00;101631.19;4893449;29;20053;-79
2023/01/03 08:31:25;;;;;;;30.27;18.10;;;;;;;0.44;100.00;101660.44;4878416;29;20068;-80
2023/01/03 08:33:53;;;;;;;28.80;17.67;;;;;;;0.61;100.00;101661.19;4878145;29;20152;-80
2023/01/03 08:36:21;;;;;;;32.70;18.70;;;;;;;0.67;100.00;101648.16;4878021;29;20032;-80
2023/01/03 08:38:57;;;;;;;28.83;17.60;;;;;;;0.82;100.00;101648.75;4893682;29;20032;-80
2023/01/03 08:41:27;;;;;;;29.67;19.00;;;;;;;0.93;100.00;101650.66;4894600;29;20036;-80
2023/01/03 08:43:54;;;;;;;28.63;17.33;;;;;;;0.74;100.00;101607.34;4911067;29;20104;-81
2023/01/03 08:46:20;;;;;;;23.77;14.27;;;;;;;0.90;100.00;101637.66;4913573;29;20063;-81
2023/01/03 08:48:46;;;;;;;27.00;17.43;;;;;;;0.99;100.00;101630.88;4913767;29;20032;-80
2023/01/03 08:51:12;;;;;;;32.63;19.43;;;;;;;1.20;100.00;101633.66;4915011;29;20032;-79
2023/01/03 08:53:38;;;;;;;32.73;19.43;;;;;;;1.33;100.00;101630.59;4913955;29;20513;-79
2023/01/03 08:56:04;;;;;;;35.93;21.83;;;;;;;1.28;100.00;101612.34;4914781;29;20055;-80
2023/01/03 08:58:30;;;;;;;34.15;20.95;;;;;;;1.39;100.00;101619.31;4914746;29;20110;-79
2023/01/03 09:01:00;;;;;;;33.20;21.43;;;;;;;1.47;100.00;101624.22;4913544;29;20095;-80
2023/01/03 09:03:26;;;;;;;46.72;24.63;;;;;;;1.46;100.00;101610.63;4913638;29;20032;-78
2023/01/03 09:05:52;;;;;;;38.28;21.30;;;;;;;1.58;100.00;101615.94;4913433;29;20028;-79
2023/01/03 09:08:17;;;;;;;32.20;21.10;;;;;;;1.61;100.00;101603.50;4913394;29;20036;-79
2023/01/03 09:10:43;;;;;;;34.53;20.60;;;;;;;1.71;100.00;101607.78;4914593;29;20043;-80
2023/01/03 09:13:08;;;;;;;35.10;20.10;;;;;;;1.69;100.00;101591.47;4913595;29;20389;-80
2023/01/03 09:15:34;;;;;;;36.55;21.13;;;;;;;1.76;100.00;101591.28;4914519;29;20044;-81
2023/01/03 09:17:59;;;;;;;35.95;20.05;;;;;;;1.92;100.00;101586.78;4913440;29;20044;-80
2023/01/03 09:20:24;;;;;;;30.58;18.55;;;;;;;1.99;100.00;101580.59;4914279;29;20036;-80
2023/01/03 09:22:50;;;;;;;33.40;21.77;;;;;;;2.19;100.00;101573.81;4914488;29;20028;-80
2023/01/03 09:25:15;;;;;;;34.70;22.83;;;;;;;2.34;100.00;101575.16;4914675;29;20111;-81
2023/01/03 09:27:45;;;;;;;32.50;19.88;;;;;;;2.22;100.00;101529.13;4913113;29;20083;-82
2023/01/03 09:30:12;;;;;;;31.15;19.30;;;;;;;2.43;100.00;101575.97;4914553;29;20032;-81
2023/01/03 09:32:38;;;;;;;31.25;20.48;;;;;;;2.45;100.00;101540.44;4913257;29;20502;-81
2023/01/03 09:35:04;;;;;;;27.40;18.35;;;;;;;2.69;100.00;101538.19;4913127;29;20139;-81
2023/01/03 09:37:30;;;;;;;28.20;17.92;;;;;;;2.75;100.00;101533.63;4914440;29;20032;-79
2023/01/03 09:39:55;;;;;;;25.10;16.15;;;;;;;3.00;100.00;101572.31;4914187;29;20043;-79
2023/01/03 09:45:13;;;;;;;26.35;17.38;;;;;;;3.27;100.00;101554.13;4918423;29;20067;-80
2023/01/03 09:47:43;;;;;;;25.58;16.90;;;;;;;3.48;100.00;101553.34;4918133;29;20028;-81
2023/01/03 09:50:17;;;;;;;;;;;;;;;3.70;100.00;101548.38;4918432;29;20039;-81
2023/01/03 10:04:19;;;;;;;23.45;15.55;;;;;;;4.40;100.00;101528.34;4917884;29;20099;-80
2023/01/03 10:06:56;;;;;;;24.48;16.35;;;;;;;4.67;100.00;101514.28;4917700;29;20418;-80
2023/01/03 10:09:59;;;;;;;22.95;15.02;;;;;;;4.88;100.00;101516.69;4917861;29;20060;-80
2023/01/03 10:12:37;;;;;;;23.13;15.05;;;;;;;5.11;100.00;101505.66;4917602;29;20066;-80
2023/01/03 10:15:36;;;;;;;22.45;14.95;;;;;;;5.37;100.00;101505.81;4917813;29;20028;-80
2023/01/03 10:18:10;;;;;;;20.55;13.30;;;;;;;5.48;100.00;101498.19;4917698;29;20036;-79
2023/01/03 10:20:48;;;;;;;32.33;19.80;;;;;;;5.58;100.00;101492.06;4900755;29;20036;-79
2023/01/03 10:23:14;;;;;;;22.50;15.27;;;;;;;5.88;100.00;101495.09;4900707;29;20040;-80
2023/01/03 10:25:43;;;;;;;20.00;14.70;;;;;;;6.03;100.00;101499.56;4900475;29;20039;-78
2023/01/03 10:28:22;;;;;;;22.45;15.43;;;;;;;5.76;100.00;101446.38;4917380;29;20095;-78
2023/01/03 10:30:50;;;;;;;21.42;13.88;;;;;;;5.80;100.00;101443.25;4917711;29;20029;-78
2023/01/03 10:33:22;;;;;;;22.77;14.77;;;;;;;5.75;100.00;101413.84;4917412;29;20032;-78
2023/01/03 10:35:47;;;;;;;19.27;11.40;;;;;;;6.36;100.00;101471.97;4900199;29;20032;-79
2023/01/03 10:38:15;;;;;;;19.13;13.57;;;;;;;6.41;100.00;101458.66;4900450;29;20043;-79
2023/01/03 10:40:47;;;;;;;18.52;13.27;;;;;;;6.62;100.00;101459.25;4917184;29;20380;-78
2023/01/03 10:43:42;;;;;;;17.83;12.13;;;;;;;6.68;100.00;101460.47;4900256;29;20036;-78
2023/01/03 10:46:22;;;;;;;18.23;13.50;;;;;;;6.62;100.00;101446.44;4908193;29;20051;-77
2023/01/03 10:48:50;;;;;;;21.15;14.23;;;;;;;6.68;100.00;101442.50;4915969;29;20110;-77
2023/01/03 10:51:39;;;;;;;17.50;12.93;;;;;;;6.65;100.00;101420.09;4916608;29;20028;-78
2023/01/03 10:54:16;;;;;;;19.27;13.52;;;;;;;6.93;100.00;101448.53;4917157;29;20066;-78
2023/01/03 10:56:43;;;;;;;17.23;12.55;;;;;;;7.00;100.00;101448.94;4915785;29;20447;-78
2023/01/03 10:59:21;;;;;;;17.38;13.15;;;;;;;7.04;100.00;101436.41;4916938;29;20060;-77
2023/01/03 11:02:15;;;;;;;19.38;13.15;;;;;;;7.10;100.00;101443.63;4916999;29;20031;-77
2023/01/03 11:04:41;;;;;;;16.92;12.55;;;;;;;7.17;100.00;101432.09;4916871;29;20059;-78
2023/01/03 11:07:07;;;;;;;16.58;12.77;;;;;;;7.29;100.00;101428.66;4914541;29;20056;-78
2023/01/03 11:09:34;;;;;;;16.92;11.32;;;;;;;7.34;100.00;101422.91;4922499;29;20033;-77
2023/01/03 11:12:14;;;;;;;17.35;12.88;;;;;;;7.42;100.00;101422.63;4928245;29;20429;-77
2023/01/03 11:14:51;;;;;;;18.10;13.07;;;;;;;7.51;100.00;101414.63;4897816;29;20400;-77
2023/01/03 11:17:19;;;;;;;18.08;13.07;;;;;;;7.60;100.00;101414.31;4928086;28;20083;-77
2023/01/03 11:19:45;;;;;;;19.23;12.90;;;;;;;7.65;100.00;101406.91;4897600;29;20492;-77
2023/01/03 11:22:16;;;;;;;18.30;13.75;;;;;;;7.65;100.00;101409.47;4898273;29;20052;-77
2023/01/03 11:25:03;;;;;;;19.50;13.73;;;;;;;7.73;100.00;101398.03;4916147;29;20048;-76
2023/01/03 11:27:50;;;;;;;19.85;13.43;;;;;;;7.63;100.00;101409.41;4916568;29;20035;-77
2023/01/03 11:30:29;;;;;;;18.77;13.15;;;;;;;7.68;100.00;101402.84;4914901;29;20063;-77
2023/01/03 11:33:19;;;;;;;17.23;12.55;;;;;;;7.56;100.00;101402.06;4914558;29;20095;-77
2023/01/03 11:36:01;;;;;;;19.17;14.23;;;;;;;7.47;100.00;101407.50;4915739;29;20479;-80
2023/01/03 11:38:48;;;;;;;19.48;13.90;;;;;;;7.57;100.00;101402.16;4915670;29;20093;-78
2023/01/03 11:41:52;;;;;;;18.92;14.35;;;;;;;7.77;100.00;101397.41;4914058;29;20545;-78
2023/01/03 11:44:26;;;;;;;19.40;13.55;;;;;;;7.71;100.00;101391.88;4867980;29;21356;-80
2023/01/03 11:46:59;;;;;;;20.30;14.02;;;;;;;7.69;100.00;101375.47;4886052;29;20044;-78
2023/01/03 11:50:10;;;;;;;20.95;13.93;;;;;;;7.75;100.00;101383.56;4885891;29;20095;-78
2023/01/03 11:52:47;;;;;;;17.42;12.30;;;;;;;7.80;100.00;101383.88;4856327;29;20594;-77
2023/01/03 11:55:34;;;;;;;20.98;13.95;;;;;;;7.73;100.00;101359.47;4848050;29;20037;-78
2023/01/03 11:58:11;;;;;;;17.10;11.98;;;;;;;7.73;100.00;101362.91;4840941;29;20428;-80
2023/01/03 12:01:18;;;;;;;18.42;13.57;;;;;;;7.58;100.00;101362.84;4841572;29;20056;-79
2023/01/03 12:04:16;;;;;;;17.60;12.15;;;;;;;7.46;100.00;101362.06;4783064;29;20035;-81
2023/01/03 12:06:57;;;;;;;20.77;14.20;;;;;;;7.41;100.00;101368.56;4780599;29;20043;-77
2023/01/03 12:09:30;;;;;;;19.17;13.65;;;;;;;7.46;100.00;101367.19;4783822;30;20047;-77
2023/01/03 12:12:07;;;;;;;20.20;14.05;;;;;;;7.53;100.00;101356.50;4783901;29;20063;-78
2023/01/03 12:14:37;;;;;;;24.13;14.60;;;;;;;7.50;100.00;101350.28;4783850;29;20050;-77
2023/01/03 12:17:15;;;;;;;20.80;13.90;;;;;;;7.60;100.00;101347.50;4783961;29;20047;-74
2023/01/03 12:19:55;;;;;;;20.92;15.63;;;;;;;7.67;100.00;101346.22;4786480;29;20503;-77
2023/01/03 12:22:40;;;;;;;22.48;15.45;;;;;;;7.71;100.00;101345.63;4819114;29;20042;-76
2023/01/03 12:25:30;;;;;;;20.88;14.23;;;;;;;7.63;100.00;101341.66;4819514;29;20041;-75
2023/01/03 12:27:59;;;;;;;;;;;;;;;7.50;100.00;101335.78;4818627;29;20506;-75
2023/01/03 12:30:41;;;;;;;22.23;15.60;;;;;;;7.33;100.00;101298.75;4837803;29;19936;-76